• Join FlightAware (Why Join?)
  • Login
  • US Flag 
07:01PM EST


 

Airport Tracker/Info


-or-


 

Live Flight TrackerFlight Track Log ✈ SKW5405 ✈ 25-May-2013 ✈ KCRQ - KLAX

Flight Track Log - Related Links

Times and Time Zones

All times are in EDT time to prevent confusion due to time zone crossing. See the SKW5405 flight status page for this flight to view local times or setup timezone preferences in your user account.

Time Position Orientation Groundspeed Altitude Reporting Facility
EDT Latitude Longitude Course Direction KTS MPH feet Rate Location/Type
08:32PM 33.1167 -117.3500 248° West 179 206 2,800  Level Southern California TRACON
08:33PM 33.1167 -117.4167 270° West 195 224 4,700 1,920 Climbing Southern California TRACON
08:34PM 33.1167 -117.4667 270° West 190 219 6,700 1,620 Climbing Southern California TRACON
08:35PM 33.1500 -117.5333 301° West 196 226 8,000 600 Climbing Southern California TRACON
08:36PM 33.1833 -117.5833 309° West 219 252 8,000  Level Southern California TRACON
08:37PM 33.2167 -117.6333 309° West 218 251 8,000  Level Southern California TRACON
08:37PM 33.2306 -117.6514 313° West 216 249 8,000  Level Los Angeles Center
08:38PM 33.2731 -117.6997 316° Northwest 213 245 8,000  Level Los Angeles Center
08:39PM 33.3150 -117.7500 315° West 213 245 8,000  Level Los Angeles Center
08:40PM 33.3597 -117.8025 316° Northwest 222 255 8,000  Level Los Angeles Center
08:41PM 33.3833 -117.8333 313° West 228 262 8,000  Level Southern California TRACON
08:42PM 33.4333 -117.9000 312° West 235 270 8,000  Level Southern California TRACON
08:42PM 33.4567 -117.9014 357° North 233 268 8,000  Level Los Angeles Center
08:43PM 33.5197 -117.9269 341° North 243 280 8,000 -480 Level Los Angeles Center
08:44PM 33.5958 -117.9603 340° North 243 280 7,100 -720 Descending Los Angeles Center
08:45PM 33.6333 -117.9833 333° Northwest 263 303 7,000 -120 Descending Southern California TRACON
08:46PM 33.7000 -118.0167 337° Northwest 249 287 7,000  Level Southern California TRACON
08:47PM 33.7667 -118.0500 337° Northwest 260 299 7,000 -60 Level Southern California TRACON
08:48PM 33.8333 -118.0667 348° North 264 304 6,900 -600 Descending Southern California TRACON
08:49PM 33.9000 -118.0833 348° North 246 283 5,900 -1,080 Descending Southern California TRACON
08:50PM 33.9333 -118.1333 309° West 209 241 4,800 -960 Descending Southern California TRACON
08:50PM 33.9561 -118.1725 305° West 207 238 4,300 -1,080 Descending Los Angeles Center
08:51PM 33.9542 -118.2311 268° West 182 209 3,000 -1,200 Descending Los Angeles Center
08:52PM 33.9475 -118.2858 262° West 175 201 1,900 -900 Descending Los Angeles Center
08:53PM 33.9433 -118.3275 263° West 148 170 1,200 -720 Descending Los Angeles Center
08:54PM 33.9403 -118.3656 264° West 128 147 500 -420 Descending Los Angeles Center
08:56PM 33.9361 -118.4092 263° West 123 142 300 -180 Descending Los Angeles Center
08:58PM 33.9425 -118.4081 110° East  Level Estimated